Time;durP1;ratioP1;P1;durP2;ratioP2;P2;SDS_P1;SDS_P2;PMS_P1;PMS_P2;Temp;Humidity;BMP_temperature;BMP_pressure;BME280_temperature;BME280_humidity;BME280_pressure;Samples;Min_cycle;Max_cycle;Signal;HPM_P1;HPM_P2
2023/05/14 00:02:25;;;;;;;5.43;3.78;;;;;;;;;;4995000;28;20040;-68
2023/05/14 00:04:52;;;;;;;4.10;3.53;;;;;;;;;;4994603;28;20041;-69
2023/05/14 00:07:18;;;;;;;5.15;4.00;;;;;;;;;;4994568;28;20023;-68
2023/05/14 00:09:45;;;;;;;3.95;3.17;;;;;;;;;;4994401;28;20038;-68
2023/05/14 00:12:11;;;;;;;3.95;3.08;;;;;;;;;;4994554;28;20038;-68
2023/05/14 00:14:37;;;;;;;4.15;2.90;;;;;;;;;;4994518;28;20033;-68
2023/05/14 00:17:05;;;;;;;3.05;2.75;;;;;;;;;;4994447;28;20434;-68
2023/05/14 00:19:32;;;;;;;3.10;2.75;;;;;;;;;;4994628;28;20023;-68
2023/05/14 00:21:58;;;;;;;3.58;2.67;;;;;;;;;;4994384;28;20044;-68
2023/05/14 00:24:24;;;;;;;4.88;3.25;;;;;;;;;;4994036;28;20372;-68
2023/05/14 00:26:51;;;;;;;5.85;3.40;;;;;;;;;;4994123;28;20023;-68
2023/05/14 00:29:17;;;;;;;3.20;2.90;;;;;;;;;;4994233;28;20488;-68
2023/05/14 00:31:43;;;;;;;4.60;2.92;;;;;;;;;;4993951;28;20046;-68
2023/05/14 00:34:10;;;;;;;3.72;2.78;;;;;;;;;;4993969;28;20387;-68
2023/05/14 00:36:36;;;;;;;4.25;3.20;;;;;;;;;;4994012;28;20026;-68
2023/05/14 00:39:03;;;;;;;3.25;2.90;;;;;;;;;;4993855;28;20026;-68
2023/05/14 00:41:29;;;;;;;3.05;2.53;;;;;;;;;;4993975;28;20026;-68
2023/05/14 00:43:55;;;;;;;3.08;2.78;;;;;;;;;;4993805;28;20026;-68
2023/05/14 00:46:22;;;;;;;4.50;2.78;;;;;;;;;;4993747;28;20032;-68
2023/05/14 00:48:48;;;;;;;4.13;2.67;;;;;;;;;;4993825;28;20018;-68
2023/05/14 00:51:15;;;;;;;5.40;3.40;;;;;;;;;;4993624;28;20042;-68
2023/05/14 00:53:42;;;;;;;7.97;3.08;;;;;;;;;;4993836;28;20040;-68
2023/05/14 00:56:08;;;;;;;3.95;3.38;;;;;;;;;;4993523;28;20026;-68
2023/05/14 00:58:35;;;;;;;4.10;3.10;;;;;;;;;;4993936;28;20023;-68
2023/05/14 01:01:01;;;;;;;3.70;2.97;;;;;;;;;;4993626;28;20517;-68
2023/05/14 01:03:29;;;;;;;6.63;2.83;;;;;;;;;;4993514;28;20101;-68
2023/05/14 01:06:16;;;;;;;3.97;2.88;;;;;;;;;;4993530;28;20381;-68
2023/05/14 01:08:57;;;;;;;6.32;3.10;;;;;;;;;;4993191;28;20025;-68
2023/05/14 01:11:33;;;;;;;4.60;2.75;;;;;;;;;;4993300;28;20038;-68
2023/05/14 01:14:05;;;;;;;4.88;3.25;;;;;;;;;;4993376;28;20030;-68
2023/05/14 01:16:33;;;;;;;5.63;3.30;;;;;;;;;;4993231;28;20390;-68
2023/05/14 01:19:00;;;;;;;4.43;2.92;;;;;;;;;;4993209;28;20080;-68
2023/05/14 01:21:34;;;;;;;6.22;2.85;;;;;;;;;;4992978;28;20034;-68
2023/05/14 01:24:00;;;;;;;4.28;3.22;;;;;;;;;;4993269;28;20032;-68
2023/05/14 01:26:29;;;;;;;5.00;3.40;;;;;;;;;;4993122;28;20411;-68
2023/05/14 01:28:57;;;;;;;4.80;3.17;;;;;;;;;;4993145;28;20014;-68
2023/05/14 01:31:27;;;;;;;5.53;3.10;;;;;;;;;;4992895;28;20071;-68
2023/05/14 01:33:55;;;;;;;6.15;2.90;;;;;;;;;;4993091;28;20494;-68
2023/05/14 01:36:23;;;;;;;4.82;2.95;;;;;;;;;;4992666;28;20054;-68
2023/05/14 01:38:50;;;;;;;3.60;3.00;;;;;;;;;;4992832;28;20022;-68
2023/05/14 01:41:17;;;;;;;7.85;3.75;;;;;;;;;;4993041;28;20476;-68
2023/05/14 01:43:44;;;;;;;4.38;2.80;;;;;;;;;;4992869;28;20479;-68
2023/05/14 01:46:11;;;;;;;3.47;3.17;;;;;;;;;;4992973;28;20034;-68
2023/05/14 01:48:37;;;;;;;6.65;3.33;;;;;;;;;;4993212;28;20052;-68
2023/05/14 01:51:03;;;;;;;4.00;2.70;;;;;;;;;;4992438;28;20467;-68
2023/05/14 01:53:30;;;;;;;5.88;3.00;;;;;;;;;;4992967;28;20026;-68
2023/05/14 01:55:56;;;;;;;3.72;3.10;;;;;;;;;;4992027;28;20506;-68
2023/05/14 01:58:22;;;;;;;3.75;3.25;;;;;;;;;;4992931;28;20030;-67
2023/05/14 02:00:49;;;;;;;3.60;3.13;;;;;;;;;;4992718;28;20036;-68
2023/05/14 02:03:15;;;;;;;3.08;2.78;;;;;;;;;;4992699;28;20026;-68
2023/05/14 02:05:41;;;;;;;4.35;2.70;;;;;;;;;;4992287;28;20034;-68
2023/05/14 02:08:08;;;;;;;4.25;3.03;;;;;;;;;;4992650;28;20027;-68
2023/05/14 02:10:34;;;;;;;7.43;3.08;;;;;;;;;;4992628;28;20491;-68
2023/05/14 02:13:00;;;;;;;4.57;3.20;;;;;;;;;;4992551;28;20037;-68
2023/05/14 02:15:27;;;;;;;4.47;3.20;;;;;;;;;;4992549;28;20057;-67
2023/05/14 02:17:53;;;;;;;4.47;2.90;;;;;;;;;;4992791;28;20034;-68
2023/05/14 02:20:19;;;;;;;4.20;2.67;;;;;;;;;;4992329;28;20060;-68
2023/05/14 02:22:46;;;;;;;4.18;2.97;;;;;;;;;;4992414;28;20032;-68
2023/05/14 02:25:12;;;;;;;3.53;3.20;;;;;;;;;;4992639;28;20480;-68
2023/05/14 02:27:39;;;;;;;4.93;3.65;;;;;;;;;;4992457;28;20037;-68
2023/05/14 02:30:05;;;;;;;3.20;2.88;;;;;;;;;;4992319;28;20030;-68
2023/05/14 02:32:32;;;;;;;4.20;3.28;;;;;;;;;;4992359;28;20047;-68
2023/05/14 02:34:58;;;;;;;3.05;2.72;;;;;;;;;;4992236;28;20488;-68
2023/05/14 02:37:24;;;;;;;6.20;2.92;;;;;;;;;;4992300;28;20038;-68
2023/05/14 02:39:52;;;;;;;6.30;3.42;;;;;;;;;;4992359;28;20394;-68
2023/05/14 02:42:18;;;;;;;8.18;3.13;;;;;;;;;;4992662;28;20030;-68
2023/05/14 02:44:44;;;;;;;4.85;2.58;;;;;;;;;;4992291;28;20019;-68
2023/05/14 02:47:10;;;;;;;4.05;3.65;;;;;;;;;;4992488;28;20034;-68
2023/05/14 02:49:37;;;;;;;4.03;3.10;;;;;;;;;;4991908;28;20022;-68
2023/05/14 02:52:03;;;;;;;6.93;3.05;;;;;;;;;;4992252;28;20491;-68
2023/05/14 02:54:30;;;;;;;3.53;3.10;;;;;;;;;;4992541;28;20023;-68
2023/05/14 02:56:56;;;;;;;3.78;3.08;;;;;;;;;;4992086;28;20030;-68
2023/05/14 02:59:24;;;;;;;2.95;2.75;;;;;;;;;;4992143;28;20033;-68
2023/05/14 03:01:50;;;;;;;3.35;3.05;;;;;;;;;;4992545;28;20040;-68
2023/05/14 03:04:16;;;;;;;6.72;3.47;;;;;;;;;;4991847;28;20023;-68
2023/05/14 03:06:43;;;;;;;5.25;3.55;;;;;;;;;;4992084;28;20399;-68
2023/05/14 03:09:09;;;;;;;9.23;3.60;;;;;;;;;;4995562;28;20026;-68
2023/05/14 03:11:35;;;;;;;3.28;2.97;;;;;;;;;;4995540;28;20068;-68
2023/05/14 03:14:02;;;;;;;6.32;3.50;;;;;;;;;;4995655;28;20029;-67
2023/05/14 03:16:28;;;;;;;4.03;3.60;;;;;;;;;;4995785;28;20038;-68
2023/05/14 03:18:54;;;;;;;6.65;3.45;;;;;;;;;;4995228;28;20030;-68
2023/05/14 03:21:21;;;;;;;5.10;3.25;;;;;;;;;;4995679;28;20030;-68
2023/05/14 03:23:47;;;;;;;5.78;3.50;;;;;;;;;;4995767;28;20026;-68
2023/05/14 03:26:13;;;;;;;4.03;3.42;;;;;;;;;;4995262;28;20045;-68
2023/05/14 03:28:40;;;;;;;6.78;3.58;;;;;;;;;;4995568;28;20034;-68
2023/05/14 03:31:06;;;;;;;7.93;3.85;;;;;;;;;;4995208;28;20050;-68
2023/05/14 03:33:33;;;;;;;6.00;3.75;;;;;;;;;;4995212;28;20026;-68
2023/05/14 03:35:59;;;;;;;5.85;3.83;;;;;;;;;;5026724;28;20033;-68
2023/05/14 03:38:25;;;;;;;4.20;3.63;;;;;;;;;;4995550;28;20036;-68
2023/05/14 03:40:52;;;;;;;4.90;3.83;;;;;;;;;;4994934;28;20026;-68
2023/05/14 03:43:18;;;;;;;6.60;3.97;;;;;;;;;;4995099;28;20041;-68
2023/05/14 03:45:45;;;;;;;5.18;3.63;;;;;;;;;;4995150;28;20029;-68
2023/05/14 03:48:11;;;;;;;4.32;3.92;;;;;;;;;;4994689;28;20034;-68
2023/05/14 03:50:37;;;;;;;7.15;3.50;;;;;;;;;;4994880;28;20361;-68
2023/05/14 03:53:03;;;;;;;5.60;4.10;;;;;;;;;;4994836;28;20019;-68
2023/05/14 03:55:30;;;;;;;6.90;4.03;;;;;;;;;;4994939;28;20044;-68
2023/05/14 03:57:56;;;;;;;5.75;4.07;;;;;;;;;;4994812;28;20014;-68
2023/05/14 04:00:22;;;;;;;6.97;4.20;;;;;;;;;;4994646;28;20048;-68
2023/05/14 04:02:49;;;;;;;5.10;3.95;;;;;;;;;;4994813;28;20034;-68
2023/05/14 04:05:15;;;;;;;4.53;3.63;;;;;;;;;;4994671;28;20434;-68
2023/05/14 04:07:41;;;;;;;11.40;4.10;;;;;;;;;;4994430;28;20023;-68
2023/05/14 04:10:08;;;;;;;5.00;4.20;;;;;;;;;;4994805;28;20034;-68
2023/05/14 04:12:34;;;;;;;4.25;3.50;;;;;;;;;;4994375;28;20096;-68
2023/05/14 04:15:01;;;;;;;6.38;4.07;;;;;;;;;;4994471;28;20034;-69
2023/05/14 04:17:27;;;;;;;6.60;4.20;;;;;;;;;;4994142;28;20034;-68
2023/05/14 04:19:53;;;;;;;4.53;3.75;;;;;;;;;;4993771;28;20026;-68
2023/05/14 04:22:19;;;;;;;3.90;3.50;;;;;;;;;;5025978;28;20029;-68
2023/05/14 04:24:46;;;;;;;4.70;3.97;;;;;;;;;;4994207;28;20032;-68
2023/05/14 04:27:19;;;;;;;8.43;4.30;;;;;;;;;;4994360;28;20029;-68
2023/05/14 04:29:46;;;;;;;11.30;4.38;;;;;;;;;;4994007;28;20035;-68
2023/05/14 04:32:12;;;;;;;7.97;3.92;;;;;;;;;;4993787;28;20045;-68
2023/05/14 04:34:40;;;;;;;5.38;4.10;;;;;;;;;;4994115;28;20033;-68
2023/05/14 04:37:06;;;;;;;4.82;4.00;;;;;;;;;;4992859;28;20538;-68
2023/05/14 04:39:33;;;;;;;5.65;4.13;;;;;;;;;;4993865;28;20502;-68
2023/05/14 04:41:59;;;;;;;4.55;4.15;;;;;;;;;;4994159;28;20034;-68
2023/05/14 04:44:26;;;;;;;4.93;4.07;;;;;;;;;;4993647;28;20503;-68
2023/05/14 04:46:52;;;;;;;6.50;3.90;;;;;;;;;;4994021;28;20084;-68
2023/05/14 04:49:19;;;;;;;7.55;4.25;;;;;;;;;;4993881;28;20032;-68
2023/05/14 04:51:47;;;;;;;7.25;4.60;;;;;;;;;;4993556;28;20038;-68
2023/05/14 04:54:13;;;;;;;5.38;4.88;;;;;;;;;;4993864;28;20028;-68
2023/05/14 04:56:39;;;;;;;7.10;5.03;;;;;;;;;;4993917;28;20076;-68
2023/05/14 04:59:06;;;;;;;11.77;5.43;;;;;;;;;;4993764;28;20080;-68
2023/05/14 05:01:32;;;;;;;10.35;5.55;;;;;;;;;;5025172;28;20034;-68
2023/05/14 05:03:59;;;;;;;6.32;5.25;;;;;;;;;;4993571;28;20029;-68
2023/05/14 05:06:25;;;;;;;5.85;5.25;;;;;;;;;;4993580;28;20026;-68
2023/05/14 05:08:52;;;;;;;6.25;5.40;;;;;;;;;;4993310;28;20041;-68
2023/05/14 05:11:18;;;;;;;11.32;5.63;;;;;;;;;;4993427;28;20332;-68
2023/05/14 05:13:44;;;;;;;13.07;5.18;;;;;;;;;;4993199;28;20017;-68
2023/05/14 05:16:11;;;;;;;6.03;5.43;;;;;;;;;;4993202;28;20037;-68
2023/05/14 05:18:37;;;;;;;9.60;5.88;;;;;;;;;;4993456;28;20021;-68
2023/05/14 05:21:04;;;;;;;12.60;6.72;;;;;;;;;;4993229;28;20038;-68
2023/05/14 05:23:30;;;;;;;6.72;5.95;;;;;;;;;;4993029;28;20030;-68
2023/05/14 05:25:56;;;;;;;8.27;5.85;;;;;;;;;;5024743;28;20034;-68
2023/05/14 05:28:23;;;;;;;8.77;6.05;;;;;;;;;;4992847;28;20034;-68
2023/05/14 05:30:49;;;;;;;9.13;6.05;;;;;;;;;;4992696;28;20038;-68
2023/05/14 05:33:15;;;;;;;6.65;5.60;;;;;;;;;;4993650;28;20030;-68
2023/05/14 05:35:43;;;;;;;11.52;6.00;;;;;;;;;;4993021;28;20041;-68
2023/05/14 05:38:09;;;;;;;6.45;5.85;;;;;;;;;;4992945;28;20480;-68
2023/05/14 05:40:35;;;;;;;8.93;6.00;;;;;;;;;;4993225;28;20023;-68
2023/05/14 05:43:02;;;;;;;6.53;5.82;;;;;;;;;;4992553;28;20061;-67
2023/05/14 05:45:28;;;;;;;6.32;5.72;;;;;;;;;;4992871;28;20018;-68
2023/05/14 05:47:54;;;;;;;6.18;5.25;;;;;;;;;;4992890;28;20488;-68
2023/05/14 05:50:21;;;;;;;5.25;4.53;;;;;;;;;;4991424;28;20042;-68
2023/05/14 05:52:47;;;;;;;6.20;4.80;;;;;;;;;;4992737;28;20027;-68
2023/05/14 05:55:13;;;;;;;7.05;4.63;;;;;;;;;;4992649;28;20022;-68
2023/05/14 05:57:40;;;;;;;5.78;5.18;;;;;;;;;;4992590;28;20031;-68
2023/05/14 06:00:11;;;;;;;5.70;5.10;;;;;;;;;;4992710;28;20030;-68
2023/05/14 06:02:38;;;;;;;6.75;5.03;;;;;;;;;;4992755;28;20026;-68
2023/05/14 06:05:05;;;;;;;7.70;5.38;;;;;;;;;;4991402;28;20026;-68
2023/05/14 06:07:32;;;;;;;50.95;21.90;;;;;;;;;;4992657;28;20022;-68
2023/05/14 06:09:58;;;;;;;17.35;9.70;;;;;;;;;;4992958;28;20030;-68
2023/05/14 06:12:24;;;;;;;14.60;8.40;;;;;;;;;;4992306;28;20034;-68
2023/05/14 06:14:51;;;;;;;6.65;5.60;;;;;;;;;;4992585;28;20045;-68
2023/05/14 06:17:17;;;;;;;7.15;5.70;;;;;;;;;;4992290;28;20518;-68
2023/05/14 06:19:43;;;;;;;6.95;5.53;;;;;;;;;;4992411;28;20070;-68
2023/05/14 06:22:10;;;;;;;9.25;5.55;;;;;;;;;;4992614;28;20030;-68
2023/05/14 06:24:36;;;;;;;7.47;6.10;;;;;;;;;;4992754;28;20022;-68
2023/05/14 06:27:02;;;;;;;8.05;5.95;;;;;;;;;;4992543;28;20022;-68
2023/05/14 06:29:29;;;;;;;9.23;5.22;;;;;;;;;;4992403;28;20380;-68
2023/05/14 06:31:56;;;;;;;8.73;6.05;;;;;;;;;;4992360;28;20053;-68
2023/05/14 06:34:23;;;;;;;8.25;5.35;;;;;;;;;;4992569;28;20022;-68
2023/05/14 06:36:49;;;;;;;7.43;5.00;;;;;;;;;;4992440;28;20034;-68
2023/05/14 06:39:15;;;;;;;6.80;5.78;;;;;;;;;;4992776;28;20026;-68
2023/05/14 06:41:42;;;;;;;6.00;5.07;;;;;;;;;;4992098;28;20036;-68
2023/05/14 06:44:08;;;;;;;5.18;4.68;;;;;;;;;;4995994;28;20076;-68
2023/05/14 06:46:34;;;;;;;7.80;5.40;;;;;;;;;;4996312;28;20480;-68
2023/05/14 06:49:01;;;;;;;5.38;4.88;;;;;;;;;;4996048;28;20045;-68
2023/05/14 06:51:27;;;;;;;12.45;3.65;;;;;;;;;;4995843;28;20042;-68
2023/05/14 06:53:54;;;;;;;4.07;3.63;;;;;;;;;;4995885;28;20399;-68
2023/05/14 06:56:21;;;;;;;4.10;3.70;;;;;;;;;;4995956;28;20045;-68
2023/05/14 06:58:48;;;;;;;7.05;4.43;;;;;;;;;;4996101;28;20029;-68
2023/05/14 07:01:14;;;;;;;7.30;4.72;;;;;;;;;;4995869;28;20037;-68
2023/05/14 07:03:40;;;;;;;4.25;3.85;;;;;;;;;;4995816;28;20033;-68
2023/05/14 07:06:06;;;;;;;7.32;4.00;;;;;;;;;;4995737;28;20502;-68
2023/05/14 07:08:33;;;;;;;6.25;4.40;;;;;;;;;;4995833;28;20034;-68
2023/05/14 07:10:59;;;;;;;5.93;3.80;;;;;;;;;;5026926;28;20036;-68
2023/05/14 07:13:27;;;;;;;5.75;3.40;;;;;;;;;;4995565;28;20034;-68
2023/05/14 07:15:56;;;;;;;4.57;3.63;;;;;;;;;;4995436;28;20018;-68
2023/05/14 07:18:23;;;;;;;3.80;3.50;;;;;;;;;;4995485;28;20030;-68
2023/05/14 07:20:49;;;;;;;4.28;3.03;;;;;;;;;;4995705;28;20056;-68
2023/05/14 07:23:16;;;;;;;4.35;2.97;;;;;;;;;;4995585;28;20506;-68
2023/05/14 07:25:42;;;;;;;5.07;3.20;;;;;;;;;;4995354;28;20031;-68
2023/05/14 07:28:08;;;;;;;3.80;2.95;;;;;;;;;;4995335;28;20025;-68
2023/05/14 07:30:35;;;;;;;3.42;2.40;;;;;;;;;;4994018;28;20030;-69
2023/05/14 07:33:01;;;;;;;5.53;2.42;;;;;;;;;;4995075;28;20069;-69
2023/05/14 07:35:27;;;;;;;2.92;2.17;;;;;;;;;;4995125;28;20427;-68
2023/05/14 07:37:53;;;;;;;2.20;2.00;;;;;;;;;;4995150;28;20040;-69
2023/05/14 07:40:20;;;;;;;3.45;2.25;;;;;;;;;;4994905;28;20029;-69
2023/05/14 07:42:46;;;;;;;2.92;1.90;;;;;;;;;;4995158;28;20036;-69
2023/05/14 07:45:13;;;;;;;4.13;1.92;;;;;;;;;;4995298;28;20026;-68
2023/05/14 07:47:39;;;;;;;2.70;1.88;;;;;;;;;;4995055;28;20024;-68
2023/05/14 07:50:06;;;;;;;1.90;1.80;;;;;;;;;;4995070;28;20022;-69
2023/05/14 07:52:33;;;;;;;3.08;1.90;;;;;;;;;;4994861;28;20518;-69
2023/05/14 07:55:00;;;;;;;3.58;1.80;;;;;;;;;;4993427;28;20410;-69
2023/05/14 07:57:26;;;;;;;3.85;1.52;;;;;;;;;;4994764;28;20015;-69
2023/05/14 07:59:53;;;;;;;2.75;1.70;;;;;;;;;;4994776;28;20399;-69
2023/05/14 08:02:19;;;;;;;2.03;1.77;;;;;;;;;;4994543;28;20040;-69
2023/05/14 08:04:45;;;;;;;4.50;1.67;;;;;;;;;;4994588;28;20027;-69
2023/05/14 08:07:12;;;;;;;1.52;1.40;;;;;;;;;;4994630;28;20483;-69
2023/05/14 08:09:38;;;;;;;1.90;1.80;;;;;;;;;;4994705;28;20030;-69
2023/05/14 08:12:05;;;;;;;1.63;1.52;;;;;;;;;;4994567;28;20034;-69
2023/05/14 08:14:32;;;;;;;2.47;1.60;;;;;;;;;;4994551;28;20015;-69
2023/05/14 08:16:58;;;;;;;3.45;1.50;;;;;;;;;;4994411;28;20030;-69
2023/05/14 08:19:26;;;;;;;2.05;1.55;;;;;;;;;;4994454;28;20036;-70
2023/05/14 08:21:52;;;;;;;1.67;1.58;;;;;;;;;;4994219;28;20029;-69
2023/05/14 08:24:18;;;;;;;2.08;1.60;;;;;;;;;;4994527;28;20034;-69
2023/05/14 08:26:45;;;;;;;3.65;1.55;;;;;;;;;;4994449;28;20064;-70
2023/05/14 08:29:11;;;;;;;2.08;1.50;;;;;;;;;;4994260;28;20026;-69
2023/05/14 08:31:38;;;;;;;2.17;1.52;;;;;;;;;;4993931;28;20046;-69
2023/05/14 08:34:04;;;;;;;2.45;1.20;;;;;;;;;;4994450;28;20023;-69
2023/05/14 08:36:31;;;;;;;2.75;1.50;;;;;;;;;;4994105;28;20034;-69
2023/05/14 08:38:58;;;;;;;4.20;1.73;;;;;;;;;;4992760;28;20026;-70
2023/05/14 08:41:24;;;;;;;1.52;1.42;;;;;;;;;;4993928;28;20022;-69
2023/05/14 08:44:00;;;;;;;3.33;1.65;;;;;;;;;;4994223;28;20042;-69
2023/05/14 08:46:29;;;;;;;2.63;1.63;;;;;;;;;;4993884;28;20014;-69
2023/05/14 08:48:59;;;;;;;3.17;1.80;;;;;;;;;;4993969;28;20018;-69
2023/05/14 08:51:27;;;;;;;1.77;1.67;;;;;;;;;;4993580;28;20510;-69
2023/05/14 08:53:53;;;;;;;2.17;1.80;;;;;;;;;;4993941;28;20076;-68
2023/05/14 08:56:20;;;;;;;2.10;1.90;;;;;;;;;;4993524;28;20030;-68
2023/05/14 08:58:47;;;;;;;2.63;2.40;;;;;;;;;;4993637;28;20022;-69
2023/05/14 09:01:13;;;;;;;2.45;2.22;;;;;;;;;;4993599;28;20407;-68
2023/05/14 09:03:40;;;;;;;1.98;1.77;;;;;;;;;;4993898;28;20030;-68
2023/05/14 09:06:07;;;;;;;3.42;2.10;;;;;;;;;;4992957;28;20030;-69
2023/05/14 09:08:35;;;;;;;5.20;2.30;;;;;;;;;;4993568;28;20034;-69
2023/05/14 09:11:01;;;;;;;3.28;1.85;;;;;;;;;;4993350;28;20525;-68
2023/05/14 09:13:27;;;;;;;5.00;1.98;;;;;;;;;;5025028;28;20037;-69
2023/05/14 09:15:54;;;;;;;2.20;2.00;;;;;;;;;;4993568;28;20034;-68
2023/05/14 09:18:20;;;;;;;3.15;2.30;;;;;;;;;;4993506;28;20060;-68
2023/05/14 09:20:47;;;;;;;1.77;1.65;;;;;;;;;;4993106;28;20018;-68
2023/05/14 09:23:13;;;;;;;4.38;2.10;;;;;;;;;;4993308;28;20041;-68
2023/05/14 09:25:39;;;;;;;3.03;2.00;;;;;;;;;;4993353;28;20045;-68
2023/05/14 09:28:08;;;;;;;5.53;2.22;;;;;;;;;;4993258;28;20026;-68
2023/05/14 09:30:35;;;;;;;5.03;2.03;;;;;;;;;;4993249;28;20015;-68
2023/05/14 09:33:03;;;;;;;3.88;2.33;;;;;;;;;;4992761;28;20054;-68
2023/05/14 09:35:31;;;;;;;2.42;1.85;;;;;;;;;;4993041;28;20034;-68
2023/05/14 09:37:57;;;;;;;2.55;1.90;;;;;;;;;;4993040;28;20022;-68
2023/05/14 09:40:23;;;;;;;2.40;2.00;;;;;;;;;;4992786;28;20044;-68
2023/05/14 09:42:50;;;;;;;5.43;1.90;;;;;;;;;;4992908;28;20030;-69
2023/05/14 09:45:16;;;;;;;2.20;1.80;;;;;;;;;;4992945;28;20036;-68
2023/05/14 09:47:43;;;;;;;2.58;2.00;;;;;;;;;;4992901;28;20036;-69
2023/05/14 09:50:10;;;;;;;2.63;1.77;;;;;;;;;;4992772;28;20041;-68
2023/05/14 09:52:36;;;;;;;2.85;1.90;;;;;;;;;;4992976;28;20034;-68
2023/05/14 09:55:03;;;;;;;2.00;1.80;;;;;;;;;;4992542;28;20448;-69
2023/05/14 09:57:29;;;;;;;2.20;1.80;;;;;;;;;;4993157;28;20117;-69
2023/05/14 09:59:55;;;;;;;1.80;1.50;;;;;;;;;;4992833;28;20019;-69
2023/05/14 10:02:23;;;;;;;3.97;2.00;;;;;;;;;;4992630;28;20030;-68
2023/05/14 10:04:50;;;;;;;3.28;2.00;;;;;;;;;;4992588;28;20036;-68
2023/05/14 10:07:18;;;;;;;3.08;1.83;;;;;;;;;;4992870;28;20030;-69
2023/05/14 10:09:45;;;;;;;10.07;4.95;;;;;;;;;;4992642;28;20369;-69
2023/05/14 10:12:13;;;;;;;7.15;1.77;;;;;;;;;;4992359;28;20042;-69
2023/05/14 10:14:40;;;;;;;3.25;1.48;;;;;;;;;;5023979;28;20383;-69
2023/05/14 10:17:08;;;;;;;3.15;1.50;;;;;;;;;;4992918;28;20482;-69
2023/05/14 10:19:35;;;;;;;2.55;1.52;;;;;;;;;;4996390;28;20381;-69
2023/05/14 10:22:05;;;;;;;2.17;1.98;;;;;;;;;;4996614;28;20401;-69
2023/05/14 10:24:32;;;;;;;1.55;1.45;;;;;;;;;;4996522;28;20022;-69
2023/05/14 10:26:58;;;;;;;2.53;1.45;;;;;;;;;;4996761;28;20034;-69
2023/05/14 10:29:34;;;;;;;1.90;1.70;;;;;;;;;;4996444;28;20080;-69
2023/05/14 10:32:05;;;;;;;4.13;2.03;;;;;;;;;;4996332;28;20042;-69
2023/05/14 10:34:42;;;;;;;2.30;2.10;;;;;;;;;;4996067;28;20033;-69
2023/05/14 10:37:09;;;;;;;2.88;1.83;;;;;;;;;;4997005;28;20030;-68
2023/05/14 10:39:50;;;;;;;3.22;2.45;;;;;;;;;;4996456;28;20022;-69
2023/05/14 10:42:25;;;;;;;3.55;2.25;;;;;;;;;;4996262;28;20033;-69
2023/05/14 10:44:52;;;;;;;5.43;2.03;;;;;;;;;;4996003;28;20042;-68
2023/05/14 10:47:19;;;;;;;2.10;1.80;;;;;;;;;;4995911;28;20035;-69
2023/05/14 10:49:49;;;;;;;4.07;1.98;;;;;;;;;;4996085;28;20018;-69
2023/05/14 10:52:17;;;;;;;3.05;1.40;;;;;;;;;;4995925;28;20070;-69
2023/05/14 10:55:02;;;;;;;3.08;1.60;;;;;;;;;;4996140;28;20076;-69
2023/05/14 10:57:29;;;;;;;1.40;1.30;;;;;;;;;;4995896;28;20026;-70
2023/05/14 10:59:57;;;;;;;4.93;2.70;;;;;;;;;;4995954;28;20036;-70
2023/05/14 11:02:33;;;;;;;1.83;1.30;;;;;;;;;;4995665;28;20510;-70
2023/05/14 11:05:04;;;;;;;1.45;1.20;;;;;;;;;;4995862;28;20389;-70
2023/05/14 11:07:34;;;;;;;2.47;1.55;;;;;;;;;;4995644;28;20494;-70
2023/05/14 11:10:01;;;;;;;;;;;;;;;;;;4996220;28;20399;-69
2023/05/14 11:12:27;;;;;;;2.05;1.20;;;;;;;;;;4995655;28;20374;-69
2023/05/14 11:14:56;;;;;;;4.50;2.50;;;;;;;;;;4995838;28;20034;-69
2023/05/14 11:17:23;;;;;;;3.45;1.50;;;;;;;;;;4995342;28;20035;-69
2023/05/14 11:19:49;;;;;;;1.88;1.17;;;;;;;;;;4995537;28;20027;-69
2023/05/14 11:22:16;;;;;;;1.77;1.23;;;;;;;;;;4995518;28;20060;-69
2023/05/14 11:24:42;;;;;;;6.18;1.50;;;;;;;;;;4995304;28;20019;-69
2023/05/14 11:27:08;;;;;;;1.73;1.63;;;;;;;;;;4995498;28;20491;-69
2023/05/14 11:29:35;;;;;;;1.65;1.40;;;;;;;;;;4995100;28;20022;-69
2023/05/14 11:32:04;;;;;;;2.60;1.30;;;;;;;;;;4995002;28;20043;-69
2023/05/14 11:34:31;;;;;;;2.30;1.60;;;;;;;;;;4995321;28;20388;-69
2023/05/14 11:36:57;;;;;;;2.38;1.65;;;;;;;;;;4995247;28;20026;-68
2023/05/14 11:39:23;;;;;;;3.30;1.50;;;;;;;;;;4995182;28;20418;-68
2023/05/14 11:41:50;;;;;;;2.88;2.00;;;;;;;;;;4995180;28;20495;-68
2023/05/14 11:44:16;;;;;;;4.68;2.17;;;;;;;;;;4995254;28;20038;-69
2023/05/14 11:46:53;;;;;;;2.78;1.90;;;;;;;;;;4995057;28;20026;-68
2023/05/14 11:49:21;;;;;;;2.92;2.22;;;;;;;;;;4995067;28;20038;-69
2023/05/14 11:51:47;;;;;;;5.65;2.60;;;;;;;;;;4995150;28;20040;-68
2023/05/14 11:54:14;;;;;;;4.70;2.25;;;;;;;;;;4995152;28;20026;-68
2023/05/14 11:56:40;;;;;;;4.63;2.50;;;;;;;;;;4993694;28;20038;-68
2023/05/14 11:59:06;;;;;;;3.65;2.10;;;;;;;;;;4995158;28;20026;-68
2023/05/14 12:01:39;;;;;;;3.72;1.80;;;;;;;;;;4994560;28;20030;-68
2023/05/14 12:04:05;;;;;;;2.28;1.65;;;;;;;;;;5026351;28;20035;-69
2023/05/14 12:06:32;;;;;;;2.22;1.63;;;;;;;;;;4994755;28;20034;-69
2023/05/14 12:09:00;;;;;;;3.78;2.00;;;;;;;;;;4994575;28;20034;-69
2023/05/14 12:11:30;;;;;;;4.60;1.98;;;;;;;;;;4994514;28;20027;-69
2023/05/14 12:13:56;;;;;;;2.05;1.65;;;;;;;;;;4994394;28;20487;-69
2023/05/14 12:16:22;;;;;;;5.57;1.80;;;;;;;;;;4994407;28;20036;-69
2023/05/14 12:18:49;;;;;;;5.70;1.90;;;;;;;;;;4993464;28;20045;-69
2023/05/14 12:21:15;;;;;;;2.63;1.88;;;;;;;;;;4994414;28;20030;-69
2023/05/14 12:23:42;;;;;;;3.05;2.00;;;;;;;;;;4994405;28;20080;-69
2023/05/14 12:26:08;;;;;;;2.78;1.60;;;;;;;;;;4994197;28;20076;-68
2023/05/14 12:28:35;;;;;;;3.67;1.80;;;;;;;;;;4994370;28;20026;-68
2023/05/14 12:31:01;;;;;;;3.72;1.80;;;;;;;;;;4994233;28;20039;-68
2023/05/14 12:33:28;;;;;;;4.07;1.90;;;;;;;;;;4994352;28;20034;-68
2023/05/14 12:36:00;;;;;;;4.63;1.90;;;;;;;;;;4994298;28;20029;-69
2023/05/14 12:38:27;;;;;;;4.05;2.30;;;;;;;;;;4994135;28;20088;-68
2023/05/14 12:40:53;;;;;;;6.82;2.42;;;;;;;;;;4993640;28;20018;-68
2023/05/14 12:43:20;;;;;;;2.92;2.03;;;;;;;;;;4993718;28;20034;-68
2023/05/14 12:45:46;;;;;;;2.85;1.40;;;;;;;;;;4993853;28;20014;-68
2023/05/14 12:48:12;;;;;;;1.67;1.58;;;;;;;;;;4994087;28;20030;-69
2023/05/14 12:50:39;;;;;;;2.15;1.95;;;;;;;;;;4993867;28;20084;-69
2023/05/14 12:53:05;;;;;;;2.00;1.75;;;;;;;;;;4993745;28;20039;-69
2023/05/14 12:55:33;;;;;;;3.35;2.38;;;;;;;;;;4993816;28;20029;-68
2023/05/14 12:57:59;;;;;;;4.35;1.60;;;;;;;;;;4993798;28;20036;-68
2023/05/14 13:00:25;;;;;;;2.60;1.40;;;;;;;;;;5025269;28;20026;-68
2023/05/14 13:02:52;;;;;;;2.35;1.50;;;;;;;;;;4994305;28;20019;-71
2023/05/14 13:05:18;;;;;;;3.40;1.50;;;;;;;;;;4993691;28;20026;-72
2023/05/14 13:07:44;;;;;;;1.75;1.63;;;;;;;;;;4993506;28;20381;-66
2023/05/14 13:10:11;;;;;;;1.50;1.40;;;;;;;;;;4993423;28;20022;-68
2023/05/14 13:12:37;;;;;;;4.93;3.63;;;;;;;;;;4993285;28;20030;-67
2023/05/14 13:15:04;;;;;;;1.48;1.38;;;;;;;;;;4993435;28;20522;-66
2023/05/14 13:17:30;;;;;;;2.85;1.40;;;;;;;;;;4993587;28;20034;-67
2023/05/14 13:19:57;;;;;;;1.63;1.48;;;;;;;;;;4993540;28;20021;-66
2023/05/14 13:22:23;;;;;;;1.63;1.52;;;;;;;;;;4993621;28;20034;-66
2023/05/14 13:24:49;;;;;;;2.53;1.73;;;;;;;;;;4993052;28;20023;-66
2023/05/14 13:27:15;;;;;;;2.50;1.70;;;;;;;;;;4993099;28;20037;-67
2023/05/14 13:29:42;;;;;;;2.55;1.25;;;;;;;;;;4993310;28;20041;-67
2023/05/14 13:32:08;;;;;;;1.10;1.00;;;;;;;;;;4993052;28;20049;-67
2023/05/14 13:34:35;;;;;;;2.10;0.90;;;;;;;;;;5024653;28;20080;-69
2023/05/14 13:37:01;;;;;;;1.23;1.00;;;;;;;;;;4993025;28;20041;-66
2023/05/14 13:39:28;;;;;;;1.45;1.08;;;;;;;;;;4993065;28;20011;-67
2023/05/14 13:41:55;;;;;;;1.70;1.00;;;;;;;;;;4992625;28;20372;-67
2023/05/14 13:44:22;;;;;;;1.05;1.00;;;;;;;;;;4993149;28;20104;-67
2023/05/14 13:46:48;;;;;;;1.27;0.98;;;;;;;;;;4992929;28;20030;-67
2023/05/14 13:49:14;;;;;;;1.00;0.90;;;;;;;;;;4993249;28;20026;-67
2023/05/14 13:51:41;;;;;;;2.83;0.95;;;;;;;;;;4992229;28;20104;-67
2023/05/14 13:54:07;;;;;;;1.23;0.85;;;;;;;;;;4992620;28;20126;-67
2023/05/14 13:56:33;;;;;;;2.35;1.38;;;;;;;;;;4992672;28;20032;-67
2023/05/14 13:59:00;;;;;;;1.50;1.17;;;;;;;;;;4993023;28;20034;-67
2023/05/14 14:01:26;;;;;;;1.30;1.20;;;;;;;;;;4992959;28;20034;-67
2023/05/14 14:03:52;;;;;;;2.00;1.20;;;;;;;;;;4993081;28;20084;-67
2023/05/14 14:06:19;;;;;;;1.73;1.13;;;;;;;;;;4992505;28;20026;-67
2023/05/14 14:08:46;;;;;;;1.27;1.00;;;;;;;;;;4992678;28;20036;-67
2023/05/14 14:11:12;;;;;;;2.25;0.88;;;;;;;;;;4992394;28;20018;-67
2023/05/14 14:13:39;;;;;;;1.85;1.13;;;;;;;;;;4992633;28;20446;-67
2023/05/14 14:16:05;;;;;;;3.13;1.20;;;;;;;;;;4992537;28;20022;-67
2023/05/14 14:18:32;;;;;;;2.40;1.27;;;;;;;;;;4992538;28;20391;-67
2023/05/14 14:20:58;;;;;;;1.20;0.80;;;;;;;;;;4991309;28;20046;-67
2023/05/14 14:23:24;;;;;;;1.10;1.00;;;;;;;;;;4992481;28;20031;-67
2023/05/14 14:25:51;;;;;;;0.98;0.70;;;;;;;;;;4992308;28;20045;-67
2023/05/14 14:28:17;;;;;;;0.90;0.90;;;;;;;;;;4991243;28;20427;-67
2023/05/14 14:30:44;;;;;;;2.15;0.85;;;;;;;;;;4992401;28;20018;-68
2023/05/14 14:33:10;;;;;;;0.90;0.90;;;;;;;;;;4992290;28;20050;-67
2023/05/14 14:35:37;;;;;;;1.20;0.70;;;;;;;;;;4992410;28;20022;-67
2023/05/14 14:38:03;;;;;;;1.00;0.90;;;;;;;;;;4992401;28;20033;-67
2023/05/14 14:40:30;;;;;;;0.88;0.85;;;;;;;;;;4992279;28;20022;-67
2023/05/14 14:42:56;;;;;;;1.27;1.08;;;;;;;;;;4992315;28;20037;-67